sensor_id;sensor_type;location;lat;lon;timestamp;pressure;altitude;pressure_sealevel;temperature;humidity
71974;BME280;59840;52.122;5.404;2023-04-15T00:00:58;101005.25;;;8.72;64.06
71974;BME280;59840;52.122;5.404;2023-04-15T00:03:25;101002.50;;;8.67;63.46
71974;BME280;59840;52.122;5.404;2023-04-15T00:05:52;101008.56;;;8.68;64.40
71974;BME280;59840;52.122;5.404;2023-04-15T00:08:19;101001.94;;;8.65;63.60
71974;BME280;59840;52.122;5.404;2023-04-15T00:10:46;101007.75;;;8.67;63.65
71974;BME280;59840;52.122;5.404;2023-04-15T00:13:13;101009.50;;;8.62;64.33
71974;BME280;59840;52.122;5.404;2023-04-15T00:15:40;101004.69;;;8.59;64.22
71974;BME280;59840;52.122;5.404;2023-04-15T00:18:08;101010.16;;;8.57;63.93
71974;BME280;59840;52.122;5.404;2023-04-15T00:20:34;100995.88;;;8.53;64.40
71974;BME280;59840;52.122;5.404;2023-04-15T00:23:01;101009.25;;;8.63;63.61
71974;BME280;59840;52.122;5.404;2023-04-15T00:25:29;101004.47;;;8.60;63.87
71974;BME280;59840;52.122;5.404;2023-04-15T00:27:56;100998.94;;;8.50;65.94
71974;BME280;59840;52.122;5.404;2023-04-15T00:30:23;101002.78;;;8.36;64.94
71974;BME280;59840;52.122;5.404;2023-04-15T00:32:51;101002.88;;;8.29;66.27
71974;BME280;59840;52.122;5.404;2023-04-15T00:35:18;101004.56;;;8.24;66.90
71974;BME280;59840;52.122;5.404;2023-04-15T00:37:44;101006.72;;;8.15;67.20
71974;BME280;59840;52.122;5.404;2023-04-15T00:40:12;101007.97;;;8.13;68.18
71974;BME280;59840;52.122;5.404;2023-04-15T00:42:39;101010.66;;;8.06;68.54
71974;BME280;59840;52.122;5.404;2023-04-15T00:45:06;101008.50;;;8.03;69.92
71974;BME280;59840;52.122;5.404;2023-04-15T00:47:35;101017.84;;;7.99;70.12
71974;BME280;59840;52.122;5.404;2023-04-15T00:50:03;101012.47;;;7.94;70.79
71974;BME280;59840;52.122;5.404;2023-04-15T00:52:30;101011.03;;;7.80;70.48
71974;BME280;59840;52.122;5.404;2023-04-15T00:54:57;101007.09;;;7.70;71.33
71974;BME280;59840;52.122;5.404;2023-04-15T00:57:25;101010.38;;;7.66;70.69
71974;BME280;59840;52.122;5.404;2023-04-15T00:59:53;101016.53;;;7.60;72.16
71974;BME280;59840;52.122;5.404;2023-04-15T01:02:21;101009.81;;;7.46;72.28
71974;BME280;59840;52.122;5.404;2023-04-15T01:04:49;101011.28;;;7.42;72.45
71974;BME280;59840;52.122;5.404;2023-04-15T01:07:16;101010.75;;;7.33;72.49
71974;BME280;59840;52.122;5.404;2023-04-15T01:09:42;101012.88;;;7.24;72.96
71974;BME280;59840;52.122;5.404;2023-04-15T01:12:11;101012.72;;;7.19;73.15
71974;BME280;59840;52.122;5.404;2023-04-15T01:14:38;101019.84;;;7.12;73.25
71974;BME280;59840;52.122;5.404;2023-04-15T01:17:04;101013.13;;;6.98;73.68
71974;BME280;59840;52.122;5.404;2023-04-15T01:19:31;101016.13;;;7.01;74.03
71974;BME280;59840;52.122;5.404;2023-04-15T01:21:58;101015.88;;;6.85;74.67
71974;BME280;59840;52.122;5.404;2023-04-15T01:24:25;101020.69;;;6.88;75.49
71974;BME280;59840;52.122;5.404;2023-04-15T01:26:53;101014.69;;;6.81;75.47
71974;BME280;59840;52.122;5.404;2023-04-15T01:29:20;101017.06;;;6.89;75.23
71974;BME280;59840;52.122;5.404;2023-04-15T01:31:51;101009.91;;;6.96;75.35
71974;BME280;59840;52.122;5.404;2023-04-15T01:34:18;101009.31;;;6.94;75.21
71974;BME280;59840;52.122;5.404;2023-04-15T01:36:44;101013.34;;;6.96;75.73
71974;BME280;59840;52.122;5.404;2023-04-15T01:39:11;101008.31;;;6.95;74.13
71974;BME280;59840;52.122;5.404;2023-04-15T01:41:38;101014.44;;;7.07;74.27
71974;BME280;59840;52.122;5.404;2023-04-15T01:44:06;101014.44;;;7.07;74.98
71974;BME280;59840;52.122;5.404;2023-04-15T01:46:34;101016.50;;;7.05;74.25
71974;BME280;59840;52.122;5.404;2023-04-15T01:49:01;101018.53;;;7.03;74.59
71974;BME280;59840;52.122;5.404;2023-04-15T01:51:28;101015.38;;;6.94;74.37
71974;BME280;59840;52.122;5.404;2023-04-15T01:53:54;101013.63;;;6.88;75.08
71974;BME280;59840;52.122;5.404;2023-04-15T01:56:24;101008.38;;;6.88;74.95
71974;BME280;59840;52.122;5.404;2023-04-15T01:58:51;101012.63;;;6.89;75.70
71974;BME280;59840;52.122;5.404;2023-04-15T02:01:17;101015.72;;;6.80;75.37
71974;BME280;59840;52.122;5.404;2023-04-15T02:03:47;101014.09;;;6.79;75.74
71974;BME280;59840;52.122;5.404;2023-04-15T02:06:14;101022.44;;;6.69;75.74
71974;BME280;59840;52.122;5.404;2023-04-15T02:08:41;101014.63;;;6.62;76.03
71974;BME280;59840;52.122;5.404;2023-04-15T02:11:07;101019.28;;;6.60;76.27
71974;BME280;59840;52.122;5.404;2023-04-15T02:13:34;101021.34;;;6.58;76.40
71974;BME280;59840;52.122;5.404;2023-04-15T02:16:02;101017.84;;;6.64;76.66
71974;BME280;59840;52.122;5.404;2023-04-15T02:18:28;101017.00;;;6.70;76.41
71974;BME280;59840;52.122;5.404;2023-04-15T02:20:55;101027.47;;;6.70;76.31
71974;BME280;59840;52.122;5.404;2023-04-15T02:23:24;101028.06;;;6.72;76.89
71974;BME280;59840;52.122;5.404;2023-04-15T02:25:50;101036.16;;;6.71;75.81
71974;BME280;59840;52.122;5.404;2023-04-15T02:28:19;101033.78;;;6.63;76.21
71974;BME280;59840;52.122;5.404;2023-04-15T02:30:47;101043.69;;;6.61;76.80
71974;BME280;59840;52.122;5.404;2023-04-15T02:33:16;101036.47;;;6.56;77.09
71974;BME280;59840;52.122;5.404;2023-04-15T02:35:42;101038.72;;;6.53;77.22
71974;BME280;59840;52.122;5.404;2023-04-15T02:38:10;101034.75;;;6.44;76.55
71974;BME280;59840;52.122;5.404;2023-04-15T02:40:37;101054.56;;;6.33;78.00
71974;BME280;59840;52.122;5.404;2023-04-15T02:43:04;101043.47;;;6.31;77.82
71974;BME280;59840;52.122;5.404;2023-04-15T02:45:32;101051.34;;;6.31;77.87
71974;BME280;59840;52.122;5.404;2023-04-15T02:47:59;101051.94;;;6.33;77.36
71974;BME280;59840;52.122;5.404;2023-04-15T02:50:29;101049.31;;;6.33;77.88
71974;BME280;59840;52.122;5.404;2023-04-15T02:52:56;101057.38;;;6.31;77.41
71974;BME280;59840;52.122;5.404;2023-04-15T02:55:23;101060.63;;;6.27;77.48
71974;BME280;59840;52.122;5.404;2023-04-15T02:57:49;101057.28;;;6.20;78.42
71974;BME280;59840;52.122;5.404;2023-04-15T03:00:16;101065.97;;;6.14;78.72
71974;BME280;59840;52.122;5.404;2023-04-15T03:02:44;101066.03;;;5.94;78.35
71974;BME280;59840;52.122;5.404;2023-04-15T03:05:12;101066.88;;;5.81;78.98
71974;BME280;59840;52.122;5.404;2023-04-15T03:07:39;101060.44;;;5.77;79.89
71974;BME280;59840;52.122;5.404;2023-04-15T03:10:07;101068.13;;;5.65;80.24
71974;BME280;59840;52.122;5.404;2023-04-15T03:12:33;101065.31;;;5.60;80.88
71974;BME280;59840;52.122;5.404;2023-04-15T03:15:00;101067.19;;;5.40;81.08
71974;BME280;59840;52.122;5.404;2023-04-15T03:17:27;101074.03;;;5.34;82.08
71974;BME280;59840;52.122;5.404;2023-04-15T03:19:53;101079.25;;;5.41;81.89
71974;BME280;59840;52.122;5.404;2023-04-15T03:22:20;101080.66;;;5.44;82.23
71974;BME280;59840;52.122;5.404;2023-04-15T03:24:47;101079.25;;;5.54;82.53
71974;BME280;59840;52.122;5.404;2023-04-15T03:27:13;101079.00;;;5.69;81.96
71974;BME280;59840;52.122;5.404;2023-04-15T03:29:40;101080.78;;;5.75;82.34
71974;BME280;59840;52.122;5.404;2023-04-15T03:32:06;101088.63;;;5.82;82.26
71974;BME280;59840;52.122;5.404;2023-04-15T03:34:33;101084.59;;;5.86;81.40
71974;BME280;59840;52.122;5.404;2023-04-15T03:36:59;101082.00;;;5.79;81.94
71974;BME280;59840;52.122;5.404;2023-04-15T03:39:26;101085.00;;;5.76;82.12
71974;BME280;59840;52.122;5.404;2023-04-15T03:41:52;101090.06;;;5.71;81.15
71974;BME280;59840;52.122;5.404;2023-04-15T03:44:19;101084.47;;;5.54;81.47
71974;BME280;59840;52.122;5.404;2023-04-15T03:46:46;101095.97;;;5.40;81.88
71974;BME280;59840;52.122;5.404;2023-04-15T03:49:12;101097.19;;;5.37;81.64
71974;BME280;59840;52.122;5.404;2023-04-15T03:51:39;101107.03;;;5.35;80.93
71974;BME280;59840;52.122;5.404;2023-04-15T03:54:06;101112.47;;;5.27;80.97
71974;BME280;59840;52.122;5.404;2023-04-15T03:56:32;101115.28;;;5.26;81.57
71974;BME280;59840;52.122;5.404;2023-04-15T03:58:58;101114.88;;;5.22;81.66
71974;BME280;59840;52.122;5.404;2023-04-15T04:01:26;101106.66;;;5.19;81.82
71974;BME280;59840;52.122;5.404;2023-04-15T04:03:52;101119.31;;;5.22;82.21
71974;BME280;59840;52.122;5.404;2023-04-15T04:06:19;101115.50;;;5.24;81.99
71974;BME280;59840;52.122;5.404;2023-04-15T04:08:46;101121.34;;;5.26;82.31
71974;BME280;59840;52.122;5.404;2023-04-15T04:11:12;101119.13;;;5.23;82.16
71974;BME280;59840;52.122;5.404;2023-04-15T04:13:39;101132.59;;;5.20;81.86
71974;BME280;59840;52.122;5.404;2023-04-15T04:16:05;101126.97;;;5.10;81.62
71974;BME280;59840;52.122;5.404;2023-04-15T04:18:32;101134.63;;;5.12;82.39
71974;BME280;59840;52.122;5.404;2023-04-15T04:20:59;101135.44;;;5.05;82.18
71974;BME280;59840;52.122;5.404;2023-04-15T04:23:25;101129.19;;;5.00;82.08
71974;BME280;59840;52.122;5.404;2023-04-15T04:25:52;101139.22;;;4.90;82.61
71974;BME280;59840;52.122;5.404;2023-04-15T04:28:18;101145.88;;;4.92;82.91
71974;BME280;59840;52.122;5.404;2023-04-15T04:30:45;101140.41;;;4.87;83.41
71974;BME280;59840;52.122;5.404;2023-04-15T04:33:12;101141.44;;;4.93;83.40
71974;BME280;59840;52.122;5.404;2023-04-15T04:35:38;101150.28;;;4.92;83.17
71974;BME280;59840;52.122;5.404;2023-04-15T04:38:05;101156.72;;;4.89;83.31
71974;BME280;59840;52.122;5.404;2023-04-15T04:40:31;101153.09;;;4.84;83.09
71974;BME280;59840;52.122;5.404;2023-04-15T04:42:58;101157.13;;;4.80;83.86
71974;BME280;59840;52.122;5.404;2023-04-15T04:45:25;101167.38;;;4.75;84.06
71974;BME280;59840;52.122;5.404;2023-04-15T04:47:52;101169.97;;;4.75;83.64
71974;BME280;59840;52.122;5.404;2023-04-15T04:50:19;101173.78;;;4.72;83.37
71974;BME280;59840;52.122;5.404;2023-04-15T04:52:46;101180.00;;;4.71;83.88
71974;BME280;59840;52.122;5.404;2023-04-15T04:55:13;101186.44;;;4.68;82.90
71974;BME280;59840;52.122;5.404;2023-04-15T04:57:39;101190.44;;;4.64;83.85
71974;BME280;59840;52.122;5.404;2023-04-15T05:00:07;101180.78;;;4.58;83.94
71974;BME280;59840;52.122;5.404;2023-04-15T05:02:34;101187.03;;;4.64;84.17
71974;BME280;59840;52.122;5.404;2023-04-15T05:05:01;101192.84;;;4.59;83.77
71974;BME280;59840;52.122;5.404;2023-04-15T05:07:28;101199.25;;;4.57;84.37
71974;BME280;59840;52.122;5.404;2023-04-15T05:09:54;101205.28;;;4.57;84.10
71974;BME280;59840;52.122;5.404;2023-04-15T05:12:22;101197.47;;;4.64;84.45
71974;BME280;59840;52.122;5.404;2023-04-15T05:14:49;101203.31;;;4.66;84.28
71974;BME280;59840;52.122;5.404;2023-04-15T05:17:15;101216.22;;;4.74;84.27
71974;BME280;59840;52.122;5.404;2023-04-15T05:19:42;101221.84;;;4.71;84.71
71974;BME280;59840;52.122;5.404;2023-04-15T05:22:08;101224.28;;;4.79;85.16
71974;BME280;59840;52.122;5.404;2023-04-15T05:24:35;101218.47;;;4.84;85.53
71974;BME280;59840;52.122;5.404;2023-04-15T05:27:01;101218.47;;;4.97;85.72
71974;BME280;59840;52.122;5.404;2023-04-15T05:29:28;101228.78;;;5.12;85.45
71974;BME280;59840;52.122;5.404;2023-04-15T05:31:55;101238.28;;;5.59;86.01
71974;BME280;59840;52.122;5.404;2023-04-15T05:34:22;101242.69;;;6.18;85.18
71974;BME280;59840;52.122;5.404;2023-04-15T05:36:49;101230.44;;;6.63;84.52
71974;BME280;59840;52.122;5.404;2023-04-15T05:39:15;101246.19;;;7.01;82.41
71974;BME280;59840;52.122;5.404;2023-04-15T05:41:42;101240.78;;;7.27;80.94
71974;BME280;59840;52.122;5.404;2023-04-15T05:44:08;101254.88;;;7.33;79.80
71974;BME280;59840;52.122;5.404;2023-04-15T05:46:35;101254.03;;;7.07;79.83
71974;BME280;59840;52.122;5.404;2023-04-15T05:49:02;101257.81;;;6.80;80.71
71974;BME280;59840;52.122;5.404;2023-04-15T05:51:29;101259.25;;;6.69;81.09
71974;BME280;59840;52.122;5.404;2023-04-15T05:53:56;101266.75;;;6.59;81.70
71974;BME280;59840;52.122;5.404;2023-04-15T05:56:22;101277.91;;;6.42;82.80
71974;BME280;59840;52.122;5.404;2023-04-15T05:58:50;101279.31;;;6.37;83.20
71974;BME280;59840;52.122;5.404;2023-04-15T06:01:19;101283.34;;;6.33;82.92
71974;BME280;59840;52.122;5.404;2023-04-15T06:03:45;101283.56;;;6.32;83.20
71974;BME280;59840;52.122;5.404;2023-04-15T06:06:12;101276.31;;;6.27;83.52
71974;BME280;59840;52.122;5.404;2023-04-15T06:08:39;101285.63;;;6.23;84.08
71974;BME280;59840;52.122;5.404;2023-04-15T06:11:06;101293.22;;;6.38;83.63
71974;BME280;59840;52.122;5.404;2023-04-15T06:13:33;101306.53;;;6.50;83.29
71974;BME280;59840;52.122;5.404;2023-04-15T06:16:00;101300.88;;;6.46;83.81
71974;BME280;59840;52.122;5.404;2023-04-15T06:18:26;101304.09;;;6.48;84.14
71974;BME280;59840;52.122;5.404;2023-04-15T06:20:53;101311.31;;;6.59;84.20
71974;BME280;59840;52.122;5.404;2023-04-15T06:23:19;101316.72;;;6.78;84.69
71974;BME280;59840;52.122;5.404;2023-04-15T06:25:46;101314.41;;;7.01;84.35
71974;BME280;59840;52.122;5.404;2023-04-15T06:28:13;101319.25;;;7.35;84.06
71974;BME280;59840;52.122;5.404;2023-04-15T06:30:39;101315.44;;;7.94;82.68
71974;BME280;59840;52.122;5.404;2023-04-15T06:33:06;101314.09;;;8.53;80.27
71974;BME280;59840;52.122;5.404;2023-04-15T06:35:33;101313.44;;;8.58;79.45
71974;BME280;59840;52.122;5.404;2023-04-15T06:37:59;101322.63;;;8.67;79.96
71974;BME280;59840;52.122;5.404;2023-04-15T06:40:26;101335.41;;;8.82;80.29
71974;BME280;59840;52.122;5.404;2023-04-15T06:42:53;101335.97;;;9.02;80.32
71974;BME280;59840;52.122;5.404;2023-04-15T06:45:20;101342.66;;;9.64;77.59
71974;BME280;59840;52.122;5.404;2023-04-15T06:47:47;101353.94;;;10.18;75.32
71974;BME280;59840;52.122;5.404;2023-04-15T06:50:13;101351.81;;;10.27;74.99
71974;BME280;59840;52.122;5.404;2023-04-15T06:52:40;101357.94;;;9.97;75.65
71974;BME280;59840;52.122;5.404;2023-04-15T06:55:07;101358.69;;;9.74;76.14
71974;BME280;59840;52.122;5.404;2023-04-15T06:57:33;101367.75;;;9.67;77.20
71974;BME280;59840;52.122;5.404;2023-04-15T07:00:01;101367.06;;;9.83;77.11
71974;BME280;59840;52.122;5.404;2023-04-15T07:02:27;101367.22;;;9.88;78.50
71974;BME280;59840;52.122;5.404;2023-04-15T07:04:54;101374.00;;;10.07;78.54
71974;BME280;59840;52.122;5.404;2023-04-15T07:07:22;101378.88;;;10.22;77.63
71974;BME280;59840;52.122;5.404;2023-04-15T07:09:48;101385.63;;;10.53;77.40
71974;BME280;59840;52.122;5.404;2023-04-15T07:12:15;101385.22;;;11.36;73.91
71974;BME280;59840;52.122;5.404;2023-04-15T07:14:41;101387.53;;;12.06;71.56
71974;BME280;59840;52.122;5.404;2023-04-15T07:17:08;101392.91;;;12.12;71.20
71974;BME280;59840;52.122;5.404;2023-04-15T07:19:35;101396.50;;;11.60;71.38
71974;BME280;59840;52.122;5.404;2023-04-15T07:22:01;101399.47;;;11.07;73.49
71974;BME280;59840;52.122;5.404;2023-04-15T07:24:28;101403.03;;;10.89;74.18
71974;BME280;59840;52.122;5.404;2023-04-15T07:26:55;101409.06;;;11.13;72.70
71974;BME280;59840;52.122;5.404;2023-04-15T07:29:26;101414.91;;;11.27;73.62
71974;BME280;59840;52.122;5.404;2023-04-15T07:31:52;101399.47;;;11.64;72.42
71974;BME280;59840;52.122;5.404;2023-04-15T07:34:19;101421.97;;;11.78;71.33
71974;BME280;59840;52.122;5.404;2023-04-15T07:36:46;101407.72;;;11.67;70.73
71974;BME280;59840;52.122;5.404;2023-04-15T07:39:16;101414.38;;;11.98;70.49
71974;BME280;59840;52.122;5.404;2023-04-15T07:41:43;101412.69;;;11.92;70.29
71974;BME280;59840;52.122;5.404;2023-04-15T07:44:10;101418.31;;;11.67;72.30
71974;BME280;59840;52.122;5.404;2023-04-15T07:46:36;101431.47;;;11.79;69.44
71974;BME280;59840;52.122;5.404;2023-04-15T07:49:04;101422.94;;;11.89;69.40
71974;BME280;59840;52.122;5.404;2023-04-15T07:51:30;101429.38;;;12.26;67.39
71974;BME280;59840;52.122;5.404;2023-04-15T07:53:57;101427.59;;;12.65;68.84
71974;BME280;59840;52.122;5.404;2023-04-15T07:56:24;101433.41;;;12.46;69.93
71974;BME280;59840;52.122;5.404;2023-04-15T07:58:51;101429.44;;;12.15;68.10
71974;BME280;59840;52.122;5.404;2023-04-15T08:01:18;101425.66;;;11.94;67.87
71974;BME280;59840;52.122;5.404;2023-04-15T08:03:45;101436.06;;;11.84;67.81
71974;BME280;59840;52.122;5.404;2023-04-15T08:06:12;101434.97;;;11.96;67.38
71974;BME280;59840;52.122;5.404;2023-04-15T08:08:39;101446.06;;;12.10;66.59
71974;BME280;59840;52.122;5.404;2023-04-15T08:11:06;101461.66;;;11.95;66.58
71974;BME280;59840;52.122;5.404;2023-04-15T08:13:32;101457.63;;;11.92;64.95
71974;BME280;59840;52.122;5.404;2023-04-15T08:16:19;101458.16;;;12.23;65.38
71974;BME280;59840;52.122;5.404;2023-04-15T08:18:49;101461.75;;;12.17;63.99
71974;BME280;59840;52.122;5.404;2023-04-15T08:21:18;101464.47;;;12.22;65.00
71974;BME280;59840;52.122;5.404;2023-04-15T08:23:46;101466.09;;;12.23;62.47
71974;BME280;59840;52.122;5.404;2023-04-15T08:26:13;101460.03;;;12.39;62.86
71974;BME280;59840;52.122;5.404;2023-04-15T08:28:41;101460.31;;;12.59;61.53
71974;BME280;59840;52.122;5.404;2023-04-15T08:31:08;101465.38;;;12.99;62.23
71974;BME280;59840;52.122;5.404;2023-04-15T08:33:35;101462.59;;;12.89;62.48
71974;BME280;59840;52.122;5.404;2023-04-15T08:36:02;101470.25;;;12.52;62.68
71974;BME280;59840;52.122;5.404;2023-04-15T08:38:28;101474.13;;;12.45;63.67
71974;BME280;59840;52.122;5.404;2023-04-15T08:40:57;101477.16;;;12.53;62.15
71974;BME280;59840;52.122;5.404;2023-04-15T08:43:33;101480.78;;;12.47;62.19
71974;BME280;59840;52.122;5.404;2023-04-15T08:46:00;101475.09;;;12.38;61.47
71974;BME280;59840;52.122;5.404;2023-04-15T08:48:28;101479.72;;;12.31;63.86
71974;BME280;59840;52.122;5.404;2023-04-15T08:50:55;101491.28;;;12.25;64.57
71974;BME280;59840;52.122;5.404;2023-04-15T08:53:23;101502.31;;;12.05;63.52
71974;BME280;59840;52.122;5.404;2023-04-15T08:55:51;101511.34;;;11.93;63.23
71974;BME280;59840;52.122;5.404;2023-04-15T08:58:18;101521.22;;;11.97;64.53
71974;BME280;59840;52.122;5.404;2023-04-15T09:00:45;101512.22;;;11.98;66.05
71974;BME280;59840;52.122;5.404;2023-04-15T09:03:12;101523.34;;;12.12;65.76
71974;BME280;59840;52.122;5.404;2023-04-15T09:05:39;101525.09;;;12.23;65.32
71974;BME280;59840;52.122;5.404;2023-04-15T09:08:05;101521.44;;;12.41;64.28
71974;BME280;59840;52.122;5.404;2023-04-15T09:10:34;101519.53;;;12.36;63.43
71974;BME280;59840;52.122;5.404;2023-04-15T09:13:01;101530.09;;;12.36;63.81
71974;BME280;59840;52.122;5.404;2023-04-15T09:15:29;101536.69;;;12.34;63.77
71974;BME280;59840;52.122;5.404;2023-04-15T09:17:55;101545.09;;;12.48;63.88
71974;BME280;59840;52.122;5.404;2023-04-15T09:20:22;101534.22;;;12.61;64.64
71974;BME280;59840;52.122;5.404;2023-04-15T09:22:49;101545.69;;;12.66;65.30
71974;BME280;59840;52.122;5.404;2023-04-15T09:27:48;101558.84;;;12.45;63.67
71974;BME280;59840;52.122;5.404;2023-04-15T09:30:15;101554.50;;;12.38;65.44
71974;BME280;59840;52.122;5.404;2023-04-15T09:32:59;101571.56;;;12.31;63.91
71974;BME280;59840;52.122;5.404;2023-04-15T09:35:26;101565.69;;;12.29;63.86
71974;BME280;59840;52.122;5.404;2023-04-15T09:38:04;101561.81;;;12.20;64.00
71974;BME280;59840;52.122;5.404;2023-04-15T09:40:41;101561.81;;;12.20;65.28
71974;BME280;59840;52.122;5.404;2023-04-15T09:43:09;101573.16;;;12.32;64.78
71974;BME280;59840;52.122;5.404;2023-04-15T09:45:47;101565.16;;;12.44;66.31
71974;BME280;59840;52.122;5.404;2023-04-15T09:50:42;101572.78;;;12.40;64.91
71974;BME280;59840;52.122;5.404;2023-04-15T09:53:10;101573.91;;;12.44;64.07
71974;BME280;59840;52.122;5.404;2023-04-15T09:55:44;101578.63;;;12.42;63.88
71974;BME280;59840;52.122;5.404;2023-04-15T09:58:19;101569.56;;;12.38;62.59
71974;BME280;59840;52.122;5.404;2023-04-15T10:00:49;101585.78;;;12.41;61.56
71974;BME280;59840;52.122;5.404;2023-04-15T10:03:20;101571.31;;;12.32;62.80
71974;BME280;59840;52.122;5.404;2023-04-15T10:05:48;101578.00;;;12.52;64.34
71974;BME280;59840;52.122;5.404;2023-04-15T10:08:20;101586.44;;;12.82;65.12
71974;BME280;59840;52.122;5.404;2023-04-15T10:10:47;101577.31;;;12.73;63.94
71974;BME280;59840;52.122;5.404;2023-04-15T10:13:17;101586.75;;;12.86;64.86
71974;BME280;59840;52.122;5.404;2023-04-15T10:15:51;101597.03;;;12.99;63.69
71974;BME280;59840;52.122;5.404;2023-04-15T10:18:26;101586.03;;;13.07;62.22
71974;BME280;59840;52.122;5.404;2023-04-15T10:20:53;101596.56;;;13.19;61.41
71974;BME280;59840;52.122;5.404;2023-04-15T10:23:21;101601.22;;;13.12;62.14
71974;BME280;59840;52.122;5.404;2023-04-15T10:25:51;101594.00;;;13.24;62.84
71974;BME280;59840;52.122;5.404;2023-04-15T10:28:20;101590.63;;;13.28;63.00
71974;BME280;59840;52.122;5.404;2023-04-15T10:30:48;101600.88;;;13.41;61.92
71974;BME280;59840;52.122;5.404;2023-04-15T10:33:20;101585.63;;;13.49;61.94
71974;BME280;59840;52.122;5.404;2023-04-15T10:35:49;101596.06;;;13.77;61.84
71974;BME280;59840;52.122;5.404;2023-04-15T10:38:44;101594.59;;;13.91;63.73
71974;BME280;59840;52.122;5.404;2023-04-15T10:41:18;101594.78;;;14.06;63.03
71974;BME280;59840;52.122;5.404;2023-04-15T10:44:00;101596.66;;;13.84;61.88
71974;BME280;59840;52.122;5.404;2023-04-15T10:46:45;101608.69;;;13.31;60.53
71974;BME280;59840;52.122;5.404;2023-04-15T10:49:13;101608.44;;;12.99;61.68
71974;BME280;59840;52.122;5.404;2023-04-15T10:52:00;101617.75;;;13.35;62.74
71974;BME280;59840;52.122;5.404;2023-04-15T10:57:07;101611.56;;;13.68;60.20
71974;BME280;59840;52.122;5.404;2023-04-15T11:02:46;101633.69;;;13.57;62.77
71974;BME280;59840;52.122;5.404;2023-04-15T11:05:14;101627.03;;;13.55;60.46
71974;BME280;59840;52.122;5.404;2023-04-15T11:07:54;101628.63;;;13.72;59.58
71974;BME280;59840;52.122;5.404;2023-04-15T11:15:42;101628.13;;;13.97;59.24
71974;BME280;59840;52.122;5.404;2023-04-15T11:20:44;101625.03;;;13.84;59.46
71974;BME280;59840;52.122;5.404;2023-04-15T11:23:27;101623.97;;;14.06;57.91
71974;BME280;59840;52.122;5.404;2023-04-15T11:26:06;101630.00;;;14.24;58.40
71974;BME280;59840;52.122;5.404;2023-04-15T11:28:36;101623.69;;;14.30;58.12
71974;BME280;59840;52.122;5.404;2023-04-15T11:31:13;101634.22;;;14.20;57.52
71974;BME280;59840;52.122;5.404;2023-04-15T11:33:59;101632.88;;;13.95;59.24
71974;BME280;59840;52.122;5.404;2023-04-15T11:36:29;101630.25;;;13.57;61.18
71974;BME280;59840;52.122;5.404;2023-04-15T11:38:58;101638.72;;;13.75;63.86
71974;BME280;59840;52.122;5.404;2023-04-15T11:41:25;101634.22;;;14.20;60.10
71974;BME280;59840;52.122;5.404;2023-04-15T11:43:52;101628.69;;;14.26;60.55
71974;BME280;59840;52.122;5.404;2023-04-15T11:46:38;101645.78;;;14.57;58.80
71974;BME280;59840;52.122;5.404;2023-04-15T11:49:05;101633.56;;;14.34;59.94
71974;BME280;59840;52.122;5.404;2023-04-15T11:51:33;101623.84;;;13.96;59.21
71974;BME280;59840;52.122;5.404;2023-04-15T11:54:00;101648.84;;;14.00;59.87
71974;BME280;59840;52.122;5.404;2023-04-15T11:56:26;101641.34;;;14.14;59.75
71974;BME280;59840;52.122;5.404;2023-04-15T11:58:57;101653.91;;;14.46;58.23
71974;BME280;59840;52.122;5.404;2023-04-15T12:01:35;101664.84;;;14.49;57.99
71974;BME280;59840;52.122;5.404;2023-04-15T12:04:17;101654.50;;;14.80;57.77
71974;BME280;59840;52.122;5.404;2023-04-15T12:06:51;101664.63;;;14.56;58.16
71974;BME280;59840;52.122;5.404;2023-04-15T12:09:17;101667.94;;;14.41;59.02
71974;BME280;59840;52.122;5.404;2023-04-15T12:11:56;101673.34;;;14.51;59.91
71974;BME280;59840;52.122;5.404;2023-04-15T12:14:30;101675.81;;;14.85;58.48
71974;BME280;59840;52.122;5.404;2023-04-15T12:17:02;101682.38;;;14.77;57.00
71974;BME280;59840;52.122;5.404;2023-04-15T12:19:34;101683.22;;;14.34;57.39
71974;BME280;59840;52.122;5.404;2023-04-15T12:22:08;101689.19;;;14.41;58.47
71974;BME280;59840;52.122;5.404;2023-04-15T12:24:37;101677.34;;;14.32;58.50
71974;BME280;59840;52.122;5.404;2023-04-15T12:27:05;101681.00;;;14.26;59.31
71974;BME280;59840;52.122;5.404;2023-04-15T12:29:34;101690.19;;;14.40;58.13
71974;BME280;59840;52.122;5.404;2023-04-15T12:32:11;101686.53;;;14.24;59.30
71974;BME280;59840;52.122;5.404;2023-04-15T12:34:42;101694.72;;;14.18;59.61
71974;BME280;59840;52.122;5.404;2023-04-15T12:37:11;101699.31;;;14.27;60.37
71974;BME280;59840;52.122;5.404;2023-04-15T12:39:43;101700.72;;;14.52;58.39
71974;BME280;59840;52.122;5.404;2023-04-15T12:42:10;101691.38;;;14.05;59.73
71974;BME280;59840;52.122;5.404;2023-04-15T12:44:38;101710.91;;;13.61;60.00
71974;BME280;59840;52.122;5.404;2023-04-15T12:47:09;101717.97;;;13.72;60.96
71974;BME280;59840;52.122;5.404;2023-04-15T12:49:38;101714.94;;;13.80;59.53
71974;BME280;59840;52.122;5.404;2023-04-15T12:52:05;101715.69;;;13.97;60.50
71974;BME280;59840;52.122;5.404;2023-04-15T12:54:32;101734.09;;;13.49;61.19
71974;BME280;59840;52.122;5.404;2023-04-15T12:56:59;101732.53;;;13.36;61.57
71974;BME280;59840;52.122;5.404;2023-04-15T12:59:27;101734.38;;;13.52;62.69
71974;BME280;59840;52.122;5.404;2023-04-15T13:01:54;101735.16;;;13.86;59.49
71974;BME280;59840;52.122;5.404;2023-04-15T13:04:23;101734.53;;;13.79;59.49
71974;BME280;59840;52.122;5.404;2023-04-15T13:06:50;101737.22;;;14.01;59.05
71974;BME280;59840;52.122;5.404;2023-04-15T13:09:17;101735.16;;;13.86;59.98
71974;BME280;59840;52.122;5.404;2023-04-15T13:11:43;101744.97;;;13.52;60.75
71974;BME280;59840;52.122;5.404;2023-04-15T13:14:12;101765.41;;;13.35;61.89
71974;BME280;59840;52.122;5.404;2023-04-15T13:16:43;101761.06;;;13.46;62.47
71974;BME280;59840;52.122;5.404;2023-04-15T13:19:09;101751.78;;;13.15;62.40